Time;durP1;ratioP1;P1;durP2;ratioP2;P2;SDS_P1;SDS_P2;PMS_P1;PMS_P2;Temp;Humidity;BMP_temperature;BMP_pressure;BME280_temperature;BME280_humidity;BME280_pressure;Samples;Min_cycle;Max_cycle;Signal;HPM_P1;HPM_P2
2024/01/29 00:02:09;;;;;;;4.37;3.33;;;8.20;99.90;;;;;;5140022;27;20459;-63
2024/01/29 00:04:36;;;;;;;6.17;3.67;;;8.30;99.90;;;;;;5129724;27;20462;-63
2024/01/29 00:07:04;;;;;;;4.93;3.20;;;8.20;99.90;;;;;;5139708;27;20939;-63
2024/01/29 00:09:31;;;;;;;4.70;3.30;;;8.20;99.90;;;;;;5131350;27;20455;-63
2024/01/29 00:12:00;;;;;;;4.00;3.10;;;8.20;99.90;;;;;;5138827;27;20460;-63
2024/01/29 00:14:28;;;;;;;4.20;3.17;;;8.10;99.90;;;;;;5133582;27;20543;-63
2024/01/29 00:16:56;;;;;;;3.67;3.10;;;8.20;99.90;;;;;;5139566;27;20454;-63
2024/01/29 00:19:23;;;;;;;4.90;3.23;;;8.20;99.90;;;;;;5134528;27;20462;-63
2024/01/29 00:21:51;;;;;;;3.90;3.23;;;8.20;99.90;;;;;;5140250;27;20450;-63
2024/01/29 00:24:18;;;;;;;3.93;3.20;;;8.20;99.90;;;;;;5139183;27;20455;-63
2024/01/29 00:26:46;;;;;;;4.50;3.20;;;8.20;99.90;;;;;;5144228;27;20461;-63
2024/01/29 00:29:14;;;;;;;4.40;3.30;;;8.20;99.90;;;;;;5142609;27;20430;-63
2024/01/29 00:31:42;;;;;;;4.43;3.33;;;8.10;99.90;;;;;;5144321;27;20484;-63
2024/01/29 00:34:09;;;;;;;4.03;3.60;;;8.10;99.90;;;;;;5143102;27;20982;-63
2024/01/29 00:36:37;;;;;;;4.17;3.00;;;8.10;99.90;;;;;;5143461;27;20519;-65
2024/01/29 00:39:08;;;;;;;4.60;3.60;;;8.10;99.90;;;;;;5138575;27;20489;-64
2024/01/29 00:41:36;;;;;;;4.63;3.30;;;8.10;99.90;;;;;;5128220;27;20507;-63
2024/01/29 00:44:03;;;;;;;4.97;3.40;;;8.10;99.90;;;;;;5138979;27;20443;-63
2024/01/29 00:46:32;;;;;;;3.73;2.80;;;8.10;99.90;;;;;;5129072;27;20454;-63
2024/01/29 00:48:59;;;;;;;4.60;3.23;;;8.00;99.90;;;;;;5137889;27;20455;-64
2024/01/29 00:51:26;;;;;;;4.40;3.60;;;8.00;99.90;;;;;;5129101;27;20432;-63
2024/01/29 00:53:54;;;;;;;5.10;3.40;;;7.90;99.90;;;;;;5140890;27;20547;-63
2024/01/29 00:56:21;;;;;;;4.67;3.50;;;7.80;99.90;;;;;;5122690;28;20464;-63
2024/01/29 00:58:48;;;;;;;5.70;3.50;;;7.80;99.90;;;;;;5128906;27;20501;-63
2024/01/29 01:01:16;;;;;;;5.73;4.03;;;7.70;99.90;;;;;;5129968;27;20463;-64
2024/01/29 01:03:44;;;;;;;4.20;3.50;;;7.70;99.90;;;;;;5142205;27;20478;-64
2024/01/29 01:06:12;;;;;;;4.60;3.40;;;7.70;99.90;;;;;;5122850;28;20516;-63
2024/01/29 01:08:39;;;;;;;4.40;3.60;;;7.80;99.90;;;;;;5131150;27;20480;-63
2024/01/29 01:11:07;;;;;;;5.30;3.40;;;7.80;99.90;;;;;;5131281;27;20561;-63
2024/01/29 01:13:35;;;;;;;4.30;3.40;;;7.70;99.90;;;;;;5141866;27;20490;-63
2024/01/29 01:16:02;;;;;;;5.57;3.60;;;7.70;99.90;;;;;;5132414;27;20647;-63
2024/01/29 01:18:29;;;;;;;5.33;3.50;;;7.70;99.90;;;;;;5144082;27;20486;-63
2024/01/29 01:20:58;;;;;;;3.93;2.77;;;7.80;99.90;;;;;;5133307;27;20961;-63
2024/01/29 01:23:27;;;;;;;4.20;3.30;;;7.80;99.90;;;;;;5144235;27;20486;-63
2024/01/29 01:25:54;;;;;;;4.50;3.17;;;7.70;99.90;;;;;;5135098;27;20462;-63
2024/01/29 01:28:22;;;;;;;3.83;3.43;;;7.70;99.90;;;;;;5142748;27;20915;-63
2024/01/29 01:30:49;;;;;;;5.80;3.57;;;7.70;99.90;;;;;;5135430;27;20557;-63
2024/01/29 01:33:16;;;;;;;4.00;3.20;;;7.70;99.90;;;;;;5141985;27;20459;-63
2024/01/29 01:35:43;;;;;;;4.33;3.10;;;7.80;99.90;;;;;;5135328;27;20580;-63
2024/01/29 01:38:12;;;;;;;4.37;3.63;;;7.80;99.90;;;;;;5142587;27;20528;-63
2024/01/29 01:40:39;;;;;;;4.33;3.37;;;7.80;99.90;;;;;;5136503;27;20482;-63
2024/01/29 01:43:16;;;;;;;4.37;3.50;;;7.80;99.90;;;;;;5132271;27;20483;-63
2024/01/29 01:45:44;;;;;;;4.27;3.13;;;7.80;99.90;;;;;;5131155;27;20462;-63
2024/01/29 01:48:12;;;;;;;4.80;3.33;;;7.80;99.90;;;;;;5141175;27;20466;-63
2024/01/29 01:50:39;;;;;;;4.43;3.60;;;7.80;99.90;;;;;;5137440;27;20458;-63
2024/01/29 01:53:07;;;;;;;3.57;3.17;;;7.80;99.90;;;;;;5141656;27;20507;-63
2024/01/29 01:55:36;;;;;;;3.97;3.57;;;7.80;99.90;;;;;;5138460;27;20768;-63
2024/01/29 01:58:03;;;;;;;4.77;3.30;;;7.80;99.90;;;;;;5140832;27;20433;-63
2024/01/29 02:00:32;;;;;;;3.80;3.07;;;7.80;99.90;;;;;;5127990;27;20471;-63
2024/01/29 02:03:02;;;;;;;3.93;2.90;;;7.80;99.90;;;;;;5132763;27;20498;-63
2024/01/29 02:05:29;;;;;;;4.50;3.40;;;7.90;99.90;;;;;;5129303;27;20456;-63
2024/01/29 02:07:57;;;;;;;3.97;3.20;;;7.80;99.90;;;;;;5134163;27;20465;-63
2024/01/29 02:10:25;;;;;;;6.20;3.43;;;7.70;99.90;;;;;;5128769;27;20982;-63
2024/01/29 02:12:55;;;;;;;4.77;3.63;;;7.60;99.90;;;;;;5133464;27;20868;-63
2024/01/29 02:15:22;;;;;;;4.67;3.80;;;7.60;99.90;;;;;;5126991;27;20515;-63
2024/01/29 02:17:49;;;;;;;4.30;3.53;;;7.60;99.90;;;;;;5132906;27;20494;-63
2024/01/29 02:20:18;;;;;;;4.90;3.37;;;7.60;99.90;;;;;;5130376;27;20459;-63
2024/01/29 02:22:47;;;;;;;4.27;3.70;;;7.50;99.90;;;;;;5133194;27;20462;-63
2024/01/29 02:25:14;;;;;;;4.10;3.00;;;7.50;99.90;;;;;;5132117;27;20934;-63
2024/01/29 02:27:42;;;;;;;4.10;3.60;;;7.40;99.90;;;;;;5134703;27;20549;-63
2024/01/29 02:30:10;;;;;;;4.00;3.60;;;7.40;99.90;;;;;;5126257;27;20944;-63
2024/01/29 02:32:37;;;;;;;4.37;3.50;;;7.40;99.90;;;;;;5136029;27;20462;-63
2024/01/29 02:35:05;;;;;;;4.30;3.17;;;7.40;99.90;;;;;;5133500;27;20617;-63
2024/01/29 02:37:32;;;;;;;4.20;3.80;;;7.30;99.90;;;;;;5119507;28;20873;-63
2024/01/29 02:40:00;;;;;;;4.67;3.20;;;7.30;99.90;;;;;;5130328;27;20475;-63
2024/01/29 02:42:28;;;;;;;3.57;3.27;;;7.40;99.90;;;;;;5136815;27;21130;-63
2024/01/29 02:44:55;;;;;;;6.77;3.53;;;7.30;99.90;;;;;;5134129;27;20452;-63
2024/01/29 02:47:22;;;;;;;4.30;3.50;;;7.30;99.90;;;;;;5135784;27;20459;-63
2024/01/29 02:49:49;;;;;;;4.90;3.90;;;7.40;99.90;;;;;;5122471;27;20483;-63
2024/01/29 02:52:17;;;;;;;4.23;3.83;;;7.40;99.90;;;;;;5137011;27;20549;-63
2024/01/29 02:54:44;;;;;;;4.70;3.27;;;7.40;99.90;;;;;;5137789;27;20483;-63
2024/01/29 02:57:12;;;;;;;4.30;3.77;;;7.40;99.90;;;;;;5136388;27;20459;-63
2024/01/29 02:59:39;;;;;;;7.97;3.87;;;7.20;99.90;;;;;;5138396;27;20437;-63
2024/01/29 03:02:08;;;;;;;4.10;3.70;;;7.20;99.90;;;;;;5137279;27;20430;-63
2024/01/29 03:04:35;;;;;;;4.13;3.37;;;7.20;99.90;;;;;;5139911;27;20457;-63
2024/01/29 03:07:02;;;;;;;5.73;3.77;;;7.20;99.90;;;;;;5138421;27;20550;-63
2024/01/29 03:09:29;;;;;;;5.67;3.77;;;7.20;99.90;;;;;;5141727;27;20518;-63
2024/01/29 03:11:57;;;;;;;4.90;3.17;;;7.10;99.90;;;;;;5136609;27;20482;-63
2024/01/29 03:14:25;;;;;;;3.87;3.27;;;7.10;99.90;;;;;;5140798;27;20516;-63
2024/01/29 03:16:52;;;;;;;5.90;3.70;;;7.10;99.90;;;;;;5139112;27;20996;-63
2024/01/29 03:19:19;;;;;;;5.33;3.90;;;7.00;99.90;;;;;;5140253;27;20433;-63
2024/01/29 03:21:47;;;;;;;4.70;3.83;;;7.00;99.90;;;;;;5122195;27;20539;-63
2024/01/29 03:24:15;;;;;;;4.23;3.60;;;7.10;99.90;;;;;;5141105;27;20459;-63
2024/01/29 03:26:42;;;;;;;3.63;3.20;;;7.10;99.90;;;;;;5124245;27;20865;-63
2024/01/29 03:29:09;;;;;;;5.00;3.63;;;7.00;99.90;;;;;;5142186;27;20470;-63
2024/01/29 03:31:38;;;;;;;6.63;3.80;;;7.00;99.90;;;;;;5125340;27;20463;-63
2024/01/29 03:34:05;;;;;;;5.63;3.97;;;7.00;99.90;;;;;;5140852;27;20557;-63
2024/01/29 03:36:32;;;;;;;4.20;3.50;;;7.00;99.90;;;;;;5127119;27;20495;-63
2024/01/29 03:39:00;;;;;;;4.33;3.63;;;7.00;99.90;;;;;;5138965;27;20537;-63
2024/01/29 03:41:27;;;;;;;5.40;3.57;;;7.00;99.90;;;;;;5121165;27;20520;-63
2024/01/29 03:43:54;;;;;;;5.73;3.90;;;7.00;99.90;;;;;;5141728;27;20436;-63
2024/01/29 03:46:21;;;;;;;4.27;3.57;;;7.00;99.90;;;;;;5130024;27;20546;-63
2024/01/29 03:48:50;;;;;;;4.70;3.47;;;6.90;99.90;;;;;;5140884;27;20458;-63
2024/01/29 03:51:17;;;;;;;3.93;3.40;;;6.80;99.90;;;;;;5130904;27;20456;-63
2024/01/29 03:53:44;;;;;;;4.30;3.90;;;6.80;99.90;;;;;;5140338;27;20524;-63
2024/01/29 03:56:11;;;;;;;5.47;3.73;;;6.80;99.90;;;;;;5131562;27;21722;-63
2024/01/29 03:58:38;;;;;;;5.10;3.93;;;6.80;99.90;;;;;;5141748;27;20522;-63
2024/01/29 04:01:05;;;;;;;5.17;3.70;;;6.70;99.90;;;;;;5132899;27;20460;-64
2024/01/29 04:03:33;;;;;;;4.77;4.00;;;6.80;99.90;;;;;;5138278;27;20771;-63
2024/01/29 04:06:02;;;;;;;4.87;3.73;;;6.70;99.90;;;;;;5122792;28;20823;-63
2024/01/29 04:08:29;;;;;;;6.50;3.80;;;6.70;99.90;;;;;;5140536;27;20458;-63
2024/01/29 04:10:56;;;;;;;6.67;4.20;;;6.80;99.90;;;;;;5134368;27;20480;-63
2024/01/29 04:13:23;;;;;;;4.30;3.20;;;6.80;99.90;;;;;;5139656;27;20438;-63
2024/01/29 04:15:51;;;;;;;3.67;3.33;;;6.70;99.90;;;;;;5133854;27;20522;-63
2024/01/29 04:18:18;;;;;;;5.60;4.50;;;6.70;99.90;;;;;;5140736;27;20487;-63
2024/01/29 04:20:45;;;;;;;5.40;3.43;;;6.70;99.90;;;;;;5133444;27;20562;-63
2024/01/29 04:23:14;;;;;;;4.50;4.10;;;6.80;99.90;;;;;;5122090;28;20470;-63
2024/01/29 04:25:41;;;;;;;5.20;3.70;;;6.70;99.90;;;;;;5133814;27;20483;-63
2024/01/29 04:28:09;;;;;;;5.50;4.23;;;6.60;99.90;;;;;;5121137;28;20490;-63
2024/01/29 04:30:36;;;;;;;5.20;4.30;;;6.50;99.90;;;;;;5134165;27;20460;-63
2024/01/29 04:33:03;;;;;;;5.40;3.90;;;6.50;99.90;;;;;;5118701;28;20980;-63
2024/01/29 04:35:30;;;;;;;4.40;3.50;;;6.50;99.90;;;;;;5119165;28;20522;-63
2024/01/29 04:37:58;;;;;;;4.53;3.83;;;6.50;99.90;;;;;;5122275;28;20478;-63
2024/01/29 04:40:26;;;;;;;5.87;3.80;;;6.40;99.90;;;;;;5136101;27;20497;-63
2024/01/29 04:42:53;;;;;;;7.97;4.00;;;6.40;99.90;;;;;;5120558;28;20494;-63
2024/01/29 04:45:21;;;;;;;5.77;4.10;;;6.50;99.90;;;;;;5120507;28;20458;-63
2024/01/29 04:47:48;;;;;;;4.70;3.50;;;6.60;99.90;;;;;;5117961;28;20521;-63
2024/01/29 04:50:15;;;;;;;4.90;3.97;;;6.60;99.90;;;;;;5122311;28;20469;-63
2024/01/29 04:52:43;;;;;;;6.00;3.70;;;6.60;99.90;;;;;;5123431;28;20454;-63
2024/01/29 04:55:11;;;;;;;5.00;4.47;;;6.50;99.90;;;;;;5138697;27;20544;-63
2024/01/29 04:57:39;;;;;;;7.40;3.90;;;6.60;99.90;;;;;;5123304;27;20455;-63
2024/01/29 05:00:08;;;;;;;4.43;4.03;;;6.60;99.90;;;;;;5131665;27;20821;-63
2024/01/29 05:02:35;;;;;;;4.27;3.87;;;6.50;99.90;;;;;;5125172;28;20459;-63
2024/01/29 05:05:03;;;;;;;5.40;4.50;;;6.50;99.90;;;;;;5139119;27;20493;-63
2024/01/29 05:07:30;;;;;;;6.57;4.37;;;6.50;99.90;;;;;;5126572;27;20944;-63
2024/01/29 05:09:57;;;;;;;4.53;3.90;;;6.50;99.90;;;;;;5142046;27;20458;-63
2024/01/29 05:12:25;;;;;;;5.87;4.27;;;6.30;99.90;;;;;;5131821;27;20478;-63
2024/01/29 05:14:53;;;;;;;5.80;3.93;;;6.40;99.90;;;;;;5143209;27;20509;-63
2024/01/29 05:17:21;;;;;;;4.60;3.70;;;6.40;99.90;;;;;;5127145;27;20768;-63
2024/01/29 05:19:48;;;;;;;5.03;4.20;;;6.30;99.90;;;;;;5129537;27;20476;-63
2024/01/29 05:22:16;;;;;;;8.93;4.27;;;6.30;99.90;;;;;;5134760;27;20914;-63
2024/01/29 05:24:43;;;;;;;5.90;4.60;;;6.40;99.90;;;;;;5143320;27;20482;-63
2024/01/29 05:27:10;;;;;;;5.40;4.33;;;6.40;99.90;;;;;;5135454;27;20458;-63
2024/01/29 05:29:37;;;;;;;4.83;4.20;;;6.30;99.90;;;;;;5136989;27;20873;-63
2024/01/29 05:32:06;;;;;;;5.73;4.10;;;6.20;99.90;;;;;;5128280;27;20489;-63
2024/01/29 05:34:34;;;;;;;7.13;3.80;;;6.20;99.90;;;;;;5144258;27;20493;-63
2024/01/29 05:37:01;;;;;;;5.40;4.17;;;6.10;99.90;;;;;;5130394;27;20542;-63
2024/01/29 05:39:29;;;;;;;5.50;4.00;;;6.10;99.90;;;;;;5131934;27;20515;-63
2024/01/29 05:41:56;;;;;;;7.30;5.03;;;6.00;99.90;;;;;;5132013;27;20435;-63
2024/01/29 05:44:23;;;;;;;5.43;4.53;;;6.00;99.90;;;;;;5131540;27;20541;-63
2024/01/29 05:46:51;;;;;;;6.57;4.30;;;6.00;99.90;;;;;;5132202;27;20459;-63
2024/01/29 05:49:21;;;;;;;4.60;4.10;;;6.10;99.90;;;;;;5131060;27;20790;-63
2024/01/29 05:51:48;;;;;;;5.63;4.30;;;6.20;99.90;;;;;;5141523;27;20462;-63
2024/01/29 05:54:15;;;;;;;5.50;4.37;;;6.20;99.90;;;;;;5141587;27;20513;-63
2024/01/29 05:56:43;;;;;;;5.60;4.47;;;6.10;99.90;;;;;;5132630;27;20522;-63
2024/01/29 05:59:10;;;;;;;4.63;4.20;;;6.10;99.90;;;;;;5132232;27;20462;-63
2024/01/29 06:01:37;;;;;;;6.00;4.23;;;6.00;99.90;;;;;;5141990;27;20491;-63
2024/01/29 06:04:05;;;;;;;6.57;4.67;;;6.00;99.90;;;;;;5142188;27;20482;-63
2024/01/29 06:06:34;;;;;;;4.87;4.37;;;6.00;99.90;;;;;;5136374;27;20737;-63
2024/01/29 06:09:01;;;;;;;6.63;4.20;;;6.00;99.90;;;;;;5134209;27;20805;-63
2024/01/29 06:11:29;;;;;;;5.17;4.10;;;6.00;99.90;;;;;;5135332;27;20797;-63
2024/01/29 06:13:56;;;;;;;5.27;3.93;;;5.90;99.90;;;;;;5122352;28;20891;-63
2024/01/29 06:16:25;;;;;;;6.33;4.63;;;5.90;99.90;;;;;;5127989;27;20501;-63
2024/01/29 06:18:52;;;;;;;5.70;4.80;;;5.80;99.90;;;;;;5133787;27;20845;-63
2024/01/29 06:21:19;;;;;;;6.60;4.33;;;5.70;99.90;;;;;;5130686;27;20551;-63
2024/01/29 06:23:48;;;;;;;5.43;4.33;;;5.70;99.90;;;;;;5134132;27;20970;-63
2024/01/29 06:26:15;;;;;;;5.70;5.00;;;5.70;99.90;;;;;;5130959;27;20451;-63
2024/01/29 06:28:43;;;;;;;6.33;4.60;;;5.60;99.90;;;;;;5121768;28;20876;-63
2024/01/29 06:31:10;;;;;;;6.27;4.73;;;5.60;99.90;;;;;;5130168;27;20854;-63
2024/01/29 06:33:38;;;;;;;5.07;4.57;;;5.60;99.90;;;;;;5133899;27;20458;-63
2024/01/29 06:36:06;;;;;;;5.00;4.50;;;5.60;99.90;;;;;;5140390;27;20514;-63
2024/01/29 06:38:33;;;;;;;6.30;4.33;;;5.60;99.90;;;;;;5134330;27;20915;-63
2024/01/29 06:41:02;;;;;;;5.63;4.97;;;5.70;99.90;;;;;;5128288;27;20430;-65
2024/01/29 06:43:29;;;;;;;6.97;5.30;;;5.70;99.90;;;;;;5121000;28;20885;-66
2024/01/29 06:45:57;;;;;;;5.97;4.83;;;5.70;99.90;;;;;;5134650;27;20486;-66
2024/01/29 06:48:24;;;;;;;7.50;4.73;;;5.80;99.90;;;;;;5134431;27;20437;-66
2024/01/29 06:50:51;;;;;;;5.93;5.00;;;5.80;99.90;;;;;;5141611;27;20442;-66
2024/01/29 06:53:18;;;;;;;6.17;4.83;;;5.80;99.90;;;;;;5134963;27;20485;-66
2024/01/29 06:55:46;;;;;;;7.40;4.63;;;5.80;99.90;;;;;;5127368;27;20582;-66
2024/01/29 06:58:14;;;;;;;9.00;4.80;;;5.70;99.90;;;;;;5120476;28;20549;-66
2024/01/29 07:00:42;;;;;;;7.33;4.87;;;5.60;99.90;;;;;;5131761;27;20498;-66
2024/01/29 07:03:09;;;;;;;6.67;5.57;;;5.60;99.90;;;;;;5134040;27;20465;-65
2024/01/29 07:05:36;;;;;;;6.87;5.13;;;5.60;99.90;;;;;;5141776;27;20488;-65
2024/01/29 07:08:05;;;;;;;5.13;4.27;;;5.60;99.90;;;;;;5124549;27;20944;-66
2024/01/29 07:10:33;;;;;;;6.97;5.13;;;5.60;99.90;;;;;;5134460;27;20943;-66
2024/01/29 07:13:00;;;;;;;7.13;4.97;;;5.70;99.90;;;;;;5140125;27;20550;-66
2024/01/29 07:15:29;;;;;;;7.60;5.20;;;5.60;99.90;;;;;;5124972;27;20494;-66
2024/01/29 07:17:56;;;;;;;6.07;4.17;;;5.60;99.90;;;;;;5122500;27;20469;-66
2024/01/29 07:20:23;;;;;;;6.00;4.37;;;5.60;99.90;;;;;;5137511;27;20717;-66
2024/01/29 07:22:52;;;;;;;6.37;4.70;;;5.60;99.90;;;;;;5126423;27;20464;-66
2024/01/29 07:25:20;;;;;;;8.00;6.30;;;5.60;99.90;;;;;;5137501;27;20433;-66
2024/01/29 07:27:48;;;;;;;5.97;5.17;;;5.60;99.90;;;;;;5128177;27;20741;-65
2024/01/29 07:30:16;;;;;;;7.73;5.43;;;5.60;99.90;;;;;;5138863;27;20429;-65
2024/01/29 07:32:45;;;;;;;6.20;5.60;;;5.70;99.90;;;;;;5129081;27;20742;-66
2024/01/29 07:35:12;;;;;;;6.63;5.03;;;5.60;99.90;;;;;;5139189;27;20458;-65
2024/01/29 07:37:40;;;;;;;6.30;5.60;;;5.60;99.90;;;;;;5129242;27;20880;-65
2024/01/29 07:40:10;;;;;;;7.67;5.83;;;5.70;99.90;;;;;;5120822;28;20459;-65
2024/01/29 07:42:38;;;;;;;7.87;4.80;;;5.80;99.90;;;;;;5130569;27;20444;-66
2024/01/29 07:45:05;;;;;;;5.53;4.80;;;5.80;99.90;;;;;;5141943;27;20433;-65
2024/01/29 07:47:33;;;;;;;8.37;5.30;;;5.80;99.90;;;;;;5132844;27;20547;-65
2024/01/29 07:50:02;;;;;;;5.57;4.90;;;5.80;99.90;;;;;;5122200;28;20466;-66
2024/01/29 07:52:29;;;;;;;5.90;5.30;;;5.80;99.90;;;;;;5132430;27;20690;-65
2024/01/29 07:54:57;;;;;;;7.17;6.33;;;5.90;99.90;;;;;;5143414;27;20493;-65
2024/01/29 07:57:25;;;;;;;9.87;6.67;;;5.90;99.90;;;;;;5135641;27;20469;-65
2024/01/29 07:59:52;;;;;;;7.90;6.07;;;6.00;99.90;;;;;;5144372;27;20741;-65
2024/01/29 08:02:20;;;;;;;8.60;6.57;;;6.00;99.90;;;;;;5135651;27;20464;-65
2024/01/29 08:04:47;;;;;;;7.20;5.87;;;6.10;99.90;;;;;;5140765;27;20924;-64
2024/01/29 08:07:16;;;;;;;7.70;6.03;;;6.40;99.90;;;;;;5116948;27;20466;-64
2024/01/29 08:09:45;;;;;;;9.60;7.17;;;6.40;99.90;;;;;;5117137;28;20455;-66
2024/01/29 08:12:12;;;;;;;11.50;8.20;;;6.40;99.90;;;;;;5113926;28;20487;-66
2024/01/29 08:14:40;;;;;;;7.83;5.87;;;6.40;99.90;;;;;;5122222;28;20430;-66
2024/01/29 08:17:07;;;;;;;6.70;4.83;;;6.50;99.90;;;;;;5123479;28;20487;-65
2024/01/29 08:19:35;;;;;;;10.70;6.13;;;6.60;99.90;;;;;;5120985;28;20459;-66
2024/01/29 08:22:03;;;;;;;6.20;4.67;;;6.80;99.90;;;;;;5122120;28;20460;-65
2024/01/29 08:24:32;;;;;;;10.70;6.07;;;6.90;99.90;;;;;;5120541;28;20430;-65
2024/01/29 08:27:01;;;;;;;6.60;5.57;;;7.00;99.90;;;;;;5121584;28;20482;-65
2024/01/29 08:29:28;;;;;;;8.13;5.70;;;7.10;99.90;;;;;;5119691;28;20718;-64
2024/01/29 08:31:56;;;;;;;6.10;5.30;;;7.30;99.90;;;;;;5121822;28;20436;-65
2024/01/29 08:34:24;;;;;;;8.50;6.17;;;7.40;99.90;;;;;;5122951;28;20468;-65
2024/01/29 08:36:51;;;;;;;6.87;5.80;;;7.40;99.90;;;;;;5122313;28;20483;-65
2024/01/29 08:39:19;;;;;;;6.00;5.43;;;7.50;99.90;;;;;;5122644;28;20434;-65
2024/01/29 08:41:48;;;;;;;6.50;5.60;;;7.60;99.90;;;;;;5122443;28;20471;-65
2024/01/29 08:44:15;;;;;;;6.40;5.40;;;7.80;99.90;;;;;;5125309;28;20475;-65
2024/01/29 08:46:43;;;;;;;6.87;5.60;;;7.90;99.90;;;;;;5127231;28;20429;-65
2024/01/29 08:49:10;;;;;;;6.60;5.47;;;8.00;99.90;;;;;;5127077;28;20485;-65
2024/01/29 08:51:38;;;;;;;6.77;5.13;;;8.10;99.90;;;;;;5126066;28;20463;-65
2024/01/29 08:54:08;;;;;;;5.70;5.07;;;8.20;99.90;;;;;;5125459;28;20637;-65
2024/01/29 08:56:35;;;;;;;8.33;5.20;;;8.30;99.90;;;;;;5125083;28;20766;-65
2024/01/29 08:59:04;;;;;;;8.10;5.47;;;8.50;99.90;;;;;;5126009;28;20889;-65
2024/01/29 09:01:32;;;;;;;7.37;5.20;;;8.70;99.90;;;;;;5124961;28;20459;-65
2024/01/29 09:04:00;;;;;;;9.90;5.63;;;8.80;99.90;;;;;;5126142;28;20461;-66
2024/01/29 09:06:28;;;;;;;6.87;5.60;;;9.00;99.90;;;;;;5125506;28;20519;-65
2024/01/29 09:08:55;;;;;;;7.43;5.30;;;9.20;99.90;;;;;;5124931;28;20459;-65
2024/01/29 09:11:23;;;;;;;6.23;4.83;;;9.40;99.90;;;;;;5122332;28;20480;-65
2024/01/29 09:13:50;;;;;;;6.13;5.53;;;9.50;99.90;;;;;;5124267;28;20434;-65
2024/01/29 09:16:19;;;;;;;8.30;5.40;;;9.70;99.90;;;;;;5124015;28;20550;-65
2024/01/29 09:18:47;;;;;;;5.60;5.00;;;9.80;99.90;;;;;;5123018;28;20487;-65
2024/01/29 09:21:14;;;;;;;6.43;5.23;;;9.80;99.90;;;;;;5123662;28;20455;-65
2024/01/29 09:23:42;;;;;;;6.70;5.87;;;10.00;99.90;;;;;;5125281;28;20488;-65
2024/01/29 09:26:10;;;;;;;6.53;5.87;;;10.10;99.90;;;;;;5123690;28;20949;-65
2024/01/29 09:28:38;;;;;;;7.67;5.87;;;10.30;99.90;;;;;;5122274;28;20455;-65
2024/01/29 09:31:06;;;;;;;8.30;5.37;;;10.30;99.90;;;;;;5121242;28;20494;-65
2024/01/29 09:33:35;;;;;;;7.77;6.03;;;10.20;99.90;;;;;;5121538;28;20447;-65
2024/01/29 09:36:03;;;;;;;6.27;5.40;;;10.20;99.90;;;;;;5121890;28;20540;-65
2024/01/29 09:38:33;;;;;;;6.20;5.53;;;10.10;99.90;;;;;;5123243;28;20478;-64
2024/01/29 09:41:00;;;;;;;6.73;5.23;;;10.00;99.90;;;;;;5123488;28;20826;-65
2024/01/29 09:43:28;;;;;;;7.50;6.33;;;10.00;99.90;;;;;;5122757;28;20460;-65
2024/01/29 09:45:57;;;;;;;7.07;5.27;;;10.10;99.90;;;;;;5123451;28;20889;-65
2024/01/29 09:48:26;;;;;;;6.47;5.87;;;10.20;99.90;;;;;;5123885;28;20455;-67
2024/01/29 09:50:56;;;;;;;8.13;6.37;;;10.30;99.90;;;;;;5124325;28;20876;-65
2024/01/29 09:53:24;;;;;;;8.60;5.80;;;10.30;99.90;;;;;;5123204;28;20470;-65
2024/01/29 09:55:52;;;;;;;6.67;5.50;;;10.40;99.90;;;;;;5123118;28;20459;-64
2024/01/29 09:58:20;;;;;;;9.60;5.50;;;10.50;99.90;;;;;;5123847;28;20509;-65
2024/01/29 10:00:48;;;;;;;7.50;5.63;;;10.60;99.90;;;;;;5123743;28;20839;-65
2024/01/29 10:03:21;;;;;;;6.17;5.57;;;10.60;99.90;;;;;;5123613;28;20451;-65
2024/01/29 10:05:50;;;;;;;7.13;5.57;;;10.70;99.90;;;;;;5123724;28;20460;-65
2024/01/29 10:08:20;;;;;;;6.20;5.33;;;10.90;99.90;;;;;;5124184;28;20762;-65
2024/01/29 10:10:49;;;;;;;5.80;5.30;;;11.10;99.90;;;;;;5121920;28;20483;-65
2024/01/29 10:13:17;;;;;;;5.53;4.57;;;11.20;99.90;;;;;;5123657;28;20550;-66
2024/01/29 10:15:44;;;;;;;7.10;6.00;;;11.30;99.90;;;;;;5122634;28;20562;-65
2024/01/29 10:18:15;;;;;;;6.53;5.83;;;11.20;99.90;;;;;;5120591;28;20586;-66
2024/01/29 10:20:43;;;;;;;5.87;5.10;;;11.10;99.90;;;;;;5120842;28;20459;-65
2024/01/29 10:23:10;;;;;;;5.80;4.73;;;11.10;99.90;;;;;;5121029;27;20502;-65
2024/01/29 10:25:40;;;;;;;6.27;5.60;;;11.20;99.90;;;;;;5123629;28;20455;-66
2024/01/29 10:28:11;;;;;;;5.53;5.00;;;11.20;99.90;;;;;;5123700;28;20461;-66
2024/01/29 10:30:39;;;;;;;7.73;6.17;;;11.50;99.90;;;;;;5128478;28;20495;-67
2024/01/29 10:33:07;;;;;;;6.50;5.33;;;11.70;99.90;;;;;;5125702;28;20464;-66
2024/01/29 10:35:34;;;;;;;6.20;5.20;;;11.90;99.90;;;;;;5122110;28;20451;-65
2024/01/29 10:38:04;;;;;;;6.47;5.87;;;12.20;99.90;;;;;;5120542;28;20488;-65
2024/01/29 10:40:32;;;;;;;7.40;5.20;;;12.30;99.90;;;;;;5119375;28;20809;-65
2024/01/29 10:43:03;;;;;;;5.53;5.03;;;12.40;99.90;;;;;;5118796;28;20537;-65
2024/01/29 10:45:34;;;;;;;8.00;6.63;;;12.60;99.90;;;;;;5118824;28;20455;-66
2024/01/29 10:48:09;;;;;;;10.20;5.80;;;12.60;99.90;;;;;;5120260;28;20460;-65
2024/01/29 10:50:37;;;;;;;8.70;6.10;;;12.60;99.90;;;;;;5121348;28;20480;-66
2024/01/29 10:53:07;;;;;;;5.93;5.33;;;12.50;99.90;;;;;;5126795;28;20833;-67
2024/01/29 10:55:36;;;;;;;6.23;5.57;;;12.70;99.90;;;;;;5124412;28;20459;-66
2024/01/29 10:58:05;;;;;;;7.87;6.23;;;12.90;99.90;;;;;;5122097;28;20660;-66
2024/01/29 11:00:35;;;;;;;5.97;5.37;;;13.10;99.90;;;;;;5123354;28;20459;-66
2024/01/29 11:03:05;;;;;;;6.80;5.90;;;13.20;99.90;;;;;;5122308;28;20547;-64
2024/01/29 11:05:33;;;;;;;6.17;4.80;;;13.30;99.90;;;;;;5119404;28;20455;-65
2024/01/29 11:08:03;;;;;;;6.70;5.03;;;13.20;99.90;;;;;;5121241;28;20455;-66
2024/01/29 11:10:33;;;;;;;5.97;4.60;;;13.00;99.90;;;;;;5120633;28;20484;-65
2024/01/29 11:13:01;;;;;;;6.33;5.73;;;12.80;99.90;;;;;;5119358;28;20778;-65
2024/01/29 11:15:31;;;;;;;9.47;5.20;;;12.70;99.90;;;;;;5119534;28;20781;-65
2024/01/29 11:17:59;;;;;;;6.30;5.70;;;12.70;99.90;;;;;;5122109;28;20950;-66
2024/01/29 11:20:27;;;;;;;6.37;5.53;;;12.90;99.90;;;;;;5122746;28;20456;-66
2024/01/29 11:22:58;;;;;;;7.80;5.87;;;13.00;99.90;;;;;;5124385;28;20889;-66
2024/01/29 11:25:27;;;;;;;5.73;4.97;;;13.30;99.90;;;;;;5124356;28;20514;-66
2024/01/29 11:27:56;;;;;;;7.43;5.67;;;13.40;99.90;;;;;;5120649;28;20469;-65
2024/01/29 11:30:26;;;;;;;7.13;5.63;;;13.50;99.90;;;;;;5119568;28;20426;-65
2024/01/29 11:32:56;;;;;;;7.37;5.90;;;13.60;99.90;;;;;;5118949;28;20456;-65
2024/01/29 11:35:26;;;;;;;6.03;5.43;;;13.70;99.90;;;;;;5116154;28;20904;-65
2024/01/29 11:37:55;;;;;;;5.70;5.20;;;13.80;99.90;;;;;;5117580;28;20545;-65
2024/01/29 11:40:33;;;;;;;6.47;5.37;;;13.60;99.90;;;;;;5114709;28;20941;-68
2024/01/29 11:43:01;;;;;;;6.83;5.30;;;13.50;99.90;;;;;;5117099;27;20457;-67
2024/01/29 11:45:31;;;;;;;6.60;6.00;;;13.50;99.90;;;;;;5115578;28;20509;-67
2024/01/29 11:48:00;;;;;;;6.10;4.77;;;13.50;99.90;;;;;;5116459;28;20504;-67
2024/01/29 11:50:28;;;;;;;7.93;5.53;;;13.60;99.90;;;;;;5117395;28;20873;-67
2024/01/29 11:52:56;;;;;;;6.97;5.47;;;13.50;99.90;;;;;;5115125;28;20466;-66
2024/01/29 11:55:23;;;;;;;7.43;6.00;;;13.50;99.90;;;;;;5116340;27;20451;-66
2024/01/29 11:57:53;;;;;;;7.20;5.40;;;13.60;99.90;;;;;;5130849;27;20966;-67
2024/01/29 12:00:21;;;;;;;7.73;5.30;;;13.70;99.90;;;;;;5135456;27;20464;-67
2024/01/29 12:02:53;;;;;;;8.73;6.00;;;13.80;99.90;;;;;;5117505;28;20513;-67
2024/01/29 12:05:22;;;;;;;5.83;5.27;;;13.90;99.90;;;;;;5114524;28;20778;-67
2024/01/29 12:07:50;;;;;;;12.00;9.30;;;14.00;99.90;;;;;;5115546;28;20452;-68
2024/01/29 12:10:18;;;;;;;6.27;5.67;;;14.40;99.90;;;;;;5115598;28;20582;-68
2024/01/29 12:12:45;;;;;;;7.10;6.07;;;14.80;99.90;;;;;;5115828;28;20459;-67
2024/01/29 12:15:13;;;;;;;6.33;5.73;;;15.10;99.90;;;;;;5114106;28;20507;-67
2024/01/29 12:17:42;;;;;;;7.70;6.03;;;15.10;99.90;;;;;;5117206;28;20490;-67
2024/01/29 12:20:12;;;;;;;5.87;5.00;;;15.30;99.90;;;;;;5120586;28;20884;-67
2024/01/29 12:22:42;;;;;;;6.63;5.60;;;15.50;99.90;;;;;;5121682;28;20937;-68
2024/01/29 12:25:12;;;;;;;7.30;5.97;;;15.70;99.90;;;;;;5121366;28;20452;-67
2024/01/29 12:27:40;;;;;;;6.87;6.17;;;15.90;99.90;;;;;;5121057;28;20852;-67
2024/01/29 12:30:11;;;;;;;5.10;4.47;;;16.10;99.90;;;;;;5122227;28;20525;-65
2024/01/29 12:32:40;;;;;;;5.70;4.50;;;15.80;99.90;;;;;;5122064;28;21159;-66
2024/01/29 12:35:25;;;;;;;6.20;4.73;;;15.50;99.90;;;;;;5119446;28;20930;-66
2024/01/29 12:37:55;;;;;;;7.23;6.53;;;15.40;99.90;;;;;;5119867;28;20483;-65
2024/01/29 12:40:22;;;;;;;7.80;6.17;;;15.20;99.90;;;;;;5121174;28;20927;-65
2024/01/29 12:43:01;;;;;;;6.90;5.57;;;15.30;99.90;;;;;;5120652;28;20444;-65
2024/01/29 12:45:28;;;;;;;6.87;5.17;;;15.10;99.90;;;;;;5121672;27;20463;-65
2024/01/29 12:48:08;;;;;;;5.83;5.23;;;15.00;99.90;;;;;;5120080;28;20477;-65
2024/01/29 12:50:36;;;;;;;5.90;5.30;;;15.10;99.90;;;;;;5119688;28;20819;-66
2024/01/29 12:53:05;;;;;;;5.90;5.30;;;15.00;99.90;;;;;;5121174;28;20447;-63
2024/01/29 12:55:33;;;;;;;6.70;5.60;;;15.10;99.90;;;;;;5120665;28;20441;-63
2024/01/29 12:58:01;;;;;;;5.80;5.03;;;15.00;99.90;;;;;;5121608;28;20544;-63